createdAt,value
2023-03-26T00:01:06.039Z,49.13
2023-03-26T00:03:41.057Z,49.14
2023-03-26T00:06:18.506Z,51.41
2023-03-26T00:08:50.883Z,50.54
2023-03-26T00:11:25.231Z,50.79
2023-03-26T00:13:58.063Z,50.63
2023-03-26T00:16:32.837Z,50.15
2023-03-26T00:19:06.136Z,45.34
2023-03-26T00:21:41.637Z,45.63
2023-03-26T00:24:17.632Z,43.29
2023-03-26T00:26:53.619Z,39.80
2023-03-26T00:29:28.261Z,39.12
2023-03-26T00:32:00.300Z,35.99
2023-03-26T00:34:34.615Z,36.45
2023-03-26T00:37:09.301Z,35.06
2023-03-26T00:39:42.938Z,33.96
2023-03-26T00:42:15.892Z,34.06
2023-03-26T00:44:48.125Z,34.34
2023-03-26T00:47:20.142Z,32.81
2023-03-26T00:49:52.168Z,33.44
2023-03-26T00:52:28.894Z,30.76
2023-03-26T00:55:01.058Z,32.78
2023-03-26T00:57:35.911Z,33.08
2023-03-26T01:00:17.106Z,30.11
2023-03-26T01:02:49.329Z,32.78
2023-03-26T01:05:53.307Z,32.66
2023-03-26T01:08:36.400Z,29.61
2023-03-26T01:11:14.779Z,30.34
2023-03-26T01:13:52.508Z,31.86
2023-03-26T01:16:30.623Z,31.06
2023-03-26T01:19:02.979Z,30.94
2023-03-26T01:21:35.483Z,30.57
2023-03-26T01:24:13.913Z,28.15
2023-03-26T01:27:17.964Z,30.78
2023-03-26T01:29:56.896Z,27.72
2023-03-26T01:32:55.862Z,30.82
2023-03-26T01:35:41.728Z,28.99
2023-03-26T01:38:28.013Z,33.61
2023-03-26T01:41:09.351Z,34.00
2023-03-26T01:43:48.785Z,33.19
2023-03-26T01:46:22.699Z,36.40
2023-03-26T01:48:56.104Z,34.75
2023-03-26T01:51:33.356Z,33.94
2023-03-26T01:54:08.161Z,30.38
2023-03-26T01:56:57.584Z,34.00
2023-03-26T02:00:11.946Z,38.64
2023-03-26T02:02:56.732Z,47.90
2023-03-26T02:05:35.863Z,42.92
2023-03-26T02:08:21.149Z,36.37
2023-03-26T02:10:59.967Z,36.96
2023-03-26T02:13:35.109Z,35.26
2023-03-26T02:16:11.910Z,35.50
2023-03-26T02:18:44.776Z,36.41
2023-03-26T02:21:20.632Z,37.71
2023-03-26T02:23:58.198Z,38.26
2023-03-26T02:26:30.410Z,40.22
2023-03-26T02:29:05.898Z,40.94
2023-03-26T02:31:38.031Z,40.72
2023-03-26T02:34:10.483Z,39.07
2023-03-26T02:36:43.169Z,37.58
2023-03-26T02:39:15.868Z,36.19
2023-03-26T02:41:47.887Z,37.74
2023-03-26T02:44:22.666Z,34.99
2023-03-26T02:46:54.755Z,37.15
2023-03-26T02:49:27.404Z,38.59
2023-03-26T02:51:59.593Z,39.09
2023-03-26T02:54:31.965Z,37.69
2023-03-26T02:57:04.033Z,38.35
2023-03-26T02:59:38.633Z,40.61
2023-03-26T03:02:10.986Z,36.41
2023-03-26T03:04:44.165Z,39.46
2023-03-26T03:07:17.104Z,40.60
2023-03-26T03:09:50.825Z,42.61
2023-03-26T03:12:22.844Z,45.26
2023-03-26T03:14:57.576Z,47.73
2023-03-26T03:17:29.678Z,51.45
2023-03-26T03:20:01.793Z,57.87
2023-03-26T03:22:33.806Z,63.01
2023-03-26T03:25:09.176Z,69.50
2023-03-26T03:27:41.410Z,70.08
2023-03-26T03:30:18.074Z,72.09
2023-03-26T03:32:50.503Z,77.65
2023-03-26T03:35:22.997Z,79.03
2023-03-26T03:37:55.133Z,81.80
2023-03-26T03:40:27.349Z,82.15
2023-03-26T03:42:59.534Z,80.55
2023-03-26T03:45:34.390Z,80.59
2023-03-26T03:48:07.383Z,78.54
2023-03-26T03:50:39.535Z,79.16
2023-03-26T03:53:16.349Z,76.07
2023-03-26T03:55:53.409Z,76.49
2023-03-26T03:58:28.163Z,81.66
2023-03-26T04:01:04.508Z,81.41
2023-03-26T04:03:42.380Z,82.46
2023-03-26T04:06:19.030Z,84.31
2023-03-26T04:08:51.426Z,87.14
2023-03-26T04:11:23.656Z,83.27
2023-03-26T04:13:55.902Z,87.69
2023-03-26T04:16:30.546Z,86.46
2023-03-26T04:19:04.120Z,85.72
2023-03-26T04:21:38.169Z,82.91
2023-03-26T04:24:11.155Z,84.75
2023-03-26T04:26:43.367Z,85.36
2023-03-26T04:29:22.118Z,89.51
2023-03-26T04:32:06.732Z,90.21
2023-03-26T04:34:39.207Z,90.64
2023-03-26T04:37:12.505Z,90.94
2023-03-26T04:39:45.113Z,91.31
2023-03-26T04:42:20.108Z,93.36
2023-03-26T04:44:52.425Z,92.46
2023-03-26T04:47:27.131Z,93.18
2023-03-26T04:49:59.312Z,90.09
2023-03-26T04:52:32.359Z,90.03
2023-03-26T04:55:05.434Z,93.16
2023-03-26T04:57:46.363Z,96.32
2023-03-26T05:00:20.609Z,97.80
2023-03-26T05:02:58.004Z,98.05
2023-03-26T05:05:32.887Z,99.60
2023-03-26T05:08:04.957Z,99.25
2023-03-26T05:10:37.305Z,96.18
2023-03-26T05:13:09.381Z,99.86
2023-03-26T05:15:41.591Z,99.44
2023-03-26T05:18:16.271Z,100.26
2023-03-26T05:20:49.242Z,99.25
2023-03-26T05:23:21.281Z,101.89
2023-03-26T05:25:56.134Z,100.61
2023-03-26T05:28:28.465Z,103.21
2023-03-26T05:31:01.301Z,104.37
2023-03-26T05:33:36.388Z,100.26
2023-03-26T05:36:13.416Z,100.46
2023-03-26T05:38:47.923Z,104.21
2023-03-26T05:41:21.796Z,101.42
2023-03-26T05:43:53.907Z,103.18
2023-03-26T05:46:26.163Z,99.96
2023-03-26T05:49:01.036Z,99.34
2023-03-26T05:51:33.108Z,100.19
2023-03-26T05:54:05.654Z,99.56
2023-03-26T05:56:37.893Z,102.23
2023-03-26T05:59:10.191Z,98.49
2023-03-26T06:01:44.853Z,101.98
2023-03-26T06:04:20.235Z,99.83
2023-03-26T06:06:52.846Z,96.29
2023-03-26T06:09:24.903Z,95.69
2023-03-26T06:11:56.994Z,95.21
2023-03-26T06:14:29.269Z,92.17
2023-03-26T06:17:01.303Z,93.32
2023-03-26T06:19:35.938Z,91.69
2023-03-26T06:22:08.362Z,94.05
2023-03-26T06:24:40.555Z,93.43
2023-03-26T06:27:12.549Z,92.57
2023-03-26T06:29:44.556Z,89.26
2023-03-26T06:32:20.206Z,92.20
2023-03-26T06:34:55.393Z,93.22
2023-03-26T06:37:27.477Z,93.86
2023-03-26T06:39:59.540Z,92.92
2023-03-26T06:42:32.126Z,90.56
2023-03-26T06:45:23.759Z,92.04
2023-03-26T06:47:56.005Z,88.86
2023-03-26T06:50:32.331Z,90.22
2023-03-26T06:53:04.437Z,91.20
2023-03-26T06:55:36.725Z,90.87
2023-03-26T06:58:08.808Z,91.45
2023-03-26T07:00:42.810Z,89.59
2023-03-26T07:03:17.349Z,90.74
2023-03-26T07:05:52.539Z,89.24
2023-03-26T07:08:26.386Z,85.97
2023-03-26T07:10:58.600Z,78.24
2023-03-26T07:13:30.623Z,84.71
2023-03-26T07:16:03.184Z,81.49
2023-03-26T07:18:35.475Z,79.07
2023-03-26T07:21:11.416Z,78.14
2023-03-26T07:23:44.115Z,81.92
2023-03-26T07:26:34.984Z,83.17
2023-03-26T07:29:17.231Z,84.34
2023-03-26T07:31:56.976Z,84.89
2023-03-26T07:34:46.344Z,98.02
2023-03-26T07:37:36.405Z,97.89
2023-03-26T07:40:21.321Z,100.58
2023-03-26T07:43:09.891Z,104.43
2023-03-26T07:45:45.542Z,109.34
2023-03-26T07:48:25.574Z,108.82
2023-03-26T07:51:00.319Z,110.54
2023-03-26T07:53:35.478Z,115.05
2023-03-26T07:56:16.454Z,114.73
2023-03-26T07:59:08.155Z,114.89
2023-03-26T08:02:17.751Z,114.14
2023-03-26T08:05:10.668Z,118.40
2023-03-26T08:07:59.804Z,116.74
2023-03-26T08:10:42.335Z,117.04
2023-03-26T08:13:30.667Z,113.91
2023-03-26T08:16:11.135Z,117.13
2023-03-26T08:18:56.152Z,116.61
2023-03-26T08:21:34.049Z,119.86
2023-03-26T08:24:14.803Z,114.95
2023-03-26T08:27:01.713Z,113.84
2023-03-26T08:29:45.895Z,114.18
2023-03-26T08:32:22.680Z,114.41
2023-03-26T08:34:57.595Z,115.50
2023-03-26T08:37:30.048Z,108.06
2023-03-26T08:40:02.142Z,115.49
2023-03-26T08:43:07.092Z,110.32
2023-03-26T08:46:26.188Z,109.84
2023-03-26T08:49:07.138Z,108.22
2023-03-26T08:52:15.076Z,109.15
2023-03-26T08:55:11.864Z,108.26
2023-03-26T08:58:14.062Z,113.34
2023-03-26T09:01:24.525Z,118.90
2023-03-26T09:04:38.569Z,128.39
2023-03-26T09:07:36.787Z,129.34
2023-03-26T09:10:35.914Z,136.30
2023-03-26T09:29:07.879Z,133.74
2023-03-26T09:32:12.852Z,127.89
2023-03-26T09:35:15.012Z,127.10
2023-03-26T09:38:02.843Z,131.64
2023-03-26T09:40:47.688Z,123.03
2023-03-26T09:43:46.320Z,122.49
2023-03-26T09:46:32.867Z,116.77
2023-03-26T09:53:01.243Z,119.35
2023-03-26T09:55:59.599Z,114.44
2023-03-26T09:58:58.113Z,114.69
2023-03-26T10:01:45.953Z,108.17
2023-03-26T10:04:47.882Z,106.30
2023-03-26T10:10:59.236Z,96.72
2023-03-26T10:13:43.720Z,95.65
2023-03-26T10:27:09.134Z,85.85
2023-03-26T10:30:02.167Z,82.96
2023-03-26T10:32:45.513Z,82.77
2023-03-26T10:35:33.947Z,79.14
2023-03-26T10:38:19.173Z,74.74
2023-03-26T10:41:07.798Z,68.91
2023-03-26T10:44:17.023Z,70.51
2023-03-26T10:47:22.362Z,72.41
2023-03-26T10:50:22.743Z,68.22
2023-03-26T10:53:03.391Z,62.68
2023-03-26T10:55:44.408Z,60.12
2023-03-26T10:58:26.375Z,56.95
2023-03-26T11:01:06.758Z,53.13
2023-03-26T11:03:53.002Z,49.22
2023-03-26T11:06:38.912Z,50.24
2023-03-26T11:09:25.355Z,52.71
2023-03-26T11:12:25.476Z,50.04
2023-03-26T11:15:11.902Z,46.59
2023-03-26T11:18:02.761Z,42.76
2023-03-26T11:20:43.485Z,42.73
2023-03-26T11:23:38.422Z,40.86
2023-03-26T11:26:17.198Z,39.99
2023-03-26T11:29:32.788Z,41.16
2023-03-26T11:32:13.453Z,43.52
2023-03-26T11:35:00.798Z,41.45
2023-03-26T11:37:38.374Z,42.81
2023-03-26T11:40:21.565Z,39.54
2023-03-26T11:43:00.866Z,40.06
2023-03-26T11:45:38.823Z,40.38
2023-03-26T11:48:17.426Z,38.89
2023-03-26T11:50:57.417Z,40.08
2023-03-26T11:53:38.658Z,40.34
2023-03-26T11:56:19.502Z,41.91
2023-03-26T11:59:01.356Z,44.55
2023-03-26T12:01:50.576Z,45.60
2023-03-26T12:07:57.497Z,43.81
2023-03-26T12:10:38.460Z,46.55
2023-03-26T12:13:33.118Z,46.49
2023-03-26T12:16:11.892Z,44.53
2023-03-26T12:18:44.888Z,47.78
2023-03-26T12:24:49.140Z,43.27
2023-03-26T12:27:30.977Z,45.74
2023-03-26T12:30:13.186Z,40.04
2023-03-26T12:32:47.217Z,51.51
2023-03-26T12:38:27.596Z,32.79
2023-03-26T12:44:42.836Z,34.76
2023-03-26T12:44:56.579Z,33.40
2023-03-26T12:47:59.789Z,36.05
2023-03-26T12:50:18.074Z,34.99
2023-03-26T12:53:37.744Z,31.18
2023-03-26T12:56:24.526Z,28.61
2023-03-26T12:59:18.640Z,27.80
2023-03-26T13:02:02.509Z,26.84
2023-03-26T13:08:24.650Z,23.95
2023-03-26T13:11:08.010Z,23.01
2023-03-26T13:14:18.871Z,22.89
2023-03-26T13:16:59.428Z,22.19
2023-03-26T13:19:41.209Z,19.34
2023-03-26T13:25:40.846Z,19.26
2023-03-26T13:28:27.466Z,19.78
2023-03-26T13:31:15.113Z,20.29
2023-03-26T13:34:00.817Z,20.25
2023-03-26T13:36:47.464Z,20.30
2023-03-26T13:39:33.533Z,19.37
2023-03-26T13:42:31.681Z,18.81
2023-03-26T13:45:12.302Z,19.39
2023-03-26T13:47:52.564Z,19.23
2023-03-26T13:50:30.548Z,18.12
2023-03-26T13:53:07.196Z,16.34
2023-03-26T13:55:44.889Z,16.30
2023-03-26T13:58:34.265Z,18.71
2023-03-26T14:01:12.789Z,18.27
2023-03-26T14:03:58.422Z,17.06
2023-03-26T14:06:46.797Z,16.96
2023-03-26T14:09:26.053Z,17.24
2023-03-26T14:12:24.680Z,18.73
2023-03-26T14:15:04.448Z,16.58
2023-03-26T14:17:45.048Z,16.86
2023-03-26T14:20:56.496Z,16.14
2023-03-26T14:24:06.826Z,16.25
2023-03-26T14:27:05.644Z,17.34
2023-03-26T14:30:03.964Z,14.54
2023-03-26T14:32:58.725Z,16.01
2023-03-26T14:35:45.109Z,16.05
2023-03-26T14:38:53.952Z,16.11
2023-03-26T14:41:31.842Z,16.67
2023-03-26T14:44:47.751Z,15.18
2023-03-26T14:47:22.403Z,14.83
2023-03-26T14:50:46.983Z,14.75
2023-03-26T14:53:33.610Z,15.92
2023-03-26T14:56:51.053Z,15.33
2023-03-26T15:00:07.235Z,15.80
2023-03-26T15:03:14.651Z,18.49
2023-03-26T15:06:19.841Z,17.74
2023-03-26T15:09:27.855Z,17.57
2023-03-26T15:12:13.666Z,16.44
2023-03-26T15:15:34.586Z,15.36
2023-03-26T15:18:37.305Z,16.91
2023-03-26T15:21:48.926Z,16.74
2023-03-26T15:25:07.016Z,18.19
2023-03-26T15:28:01.541Z,17.68
2023-03-26T15:31:09.948Z,16.94
2023-03-26T15:34:24.797Z,17.66
2023-03-26T15:37:31.030Z,14.35
2023-03-26T15:40:30.041Z,15.02
2023-03-26T15:43:14.443Z,14.62
2023-03-26T15:45:50.593Z,15.27
2023-03-26T15:48:55.075Z,15.26
2023-03-26T15:51:46.512Z,17.73
2023-03-26T15:54:30.419Z,17.81
2023-03-26T15:57:16.915Z,16.84
2023-03-26T16:00:12.610Z,17.39
2023-03-26T16:02:54.083Z,18.40
2023-03-26T16:05:51.771Z,18.09
2023-03-26T16:08:39.288Z,17.94
2023-03-26T16:11:13.591Z,17.23
2023-03-26T16:13:47.255Z,17.08
2023-03-26T16:16:28.383Z,17.24
2023-03-26T16:19:22.955Z,18.39
2023-03-26T16:22:06.235Z,16.94
2023-03-26T16:24:42.605Z,16.64
2023-03-26T16:27:37.813Z,16.47
2023-03-26T16:30:20.891Z,18.36
2023-03-26T16:32:59.356Z,21.80
2023-03-26T16:36:03.816Z,17.61
2023-03-26T16:38:53.104Z,22.26
2023-03-26T16:41:31.632Z,41.12
2023-03-26T16:44:14.010Z,27.45
2023-03-26T16:46:58.483Z,25.71
2023-03-26T16:50:07.404Z,25.75
2023-03-26T16:52:53.411Z,29.52
2023-03-26T16:55:42.870Z,24.35
2023-03-26T16:58:31.267Z,22.29
2023-03-26T17:01:16.135Z,20.38
2023-03-26T17:03:58.305Z,22.64
2023-03-26T17:06:56.865Z,25.93
2023-03-26T17:09:44.281Z,30.82
2023-03-26T17:12:28.655Z,41.09
2023-03-26T17:15:15.435Z,40.49
2023-03-26T17:18:18.610Z,27.49
2023-03-26T17:21:04.565Z,27.37
2023-03-26T17:23:59.164Z,21.20
2023-03-26T17:26:46.122Z,21.79
2023-03-26T17:29:30.054Z,20.90
2023-03-26T17:32:12.457Z,44.49
2023-03-26T17:35:04.527Z,31.58
2023-03-26T17:37:48.133Z,16.96
2023-03-26T17:40:51.716Z,16.53
2023-03-26T17:43:42.288Z,16.76
2023-03-26T17:46:33.350Z,14.97
2023-03-26T17:49:16.867Z,14.89
2023-03-26T17:51:57.941Z,13.21
2023-03-26T17:54:39.473Z,13.56
2023-03-26T17:57:20.619Z,13.41
2023-03-26T17:59:57.077Z,12.65
2023-03-26T18:02:42.222Z,12.38
2023-03-26T18:05:22.847Z,12.55
2023-03-26T18:08:24.226Z,14.59
2023-03-26T18:11:24.003Z,15.77
2023-03-26T18:14:20.084Z,17.64
2023-03-26T18:16:56.210Z,21.07
2023-03-26T18:19:28.678Z,18.90
2023-03-26T18:22:02.635Z,16.00
2023-03-26T18:24:37.271Z,15.74
2023-03-26T18:27:13.187Z,13.41
2023-03-26T18:30:03.118Z,14.09
2023-03-26T18:32:41.090Z,13.25
2023-03-26T18:35:21.656Z,12.10
2023-03-26T18:37:59.056Z,13.35
2023-03-26T18:40:36.555Z,14.86
2023-03-26T18:43:09.053Z,14.21
2023-03-26T18:45:44.817Z,12.64
2023-03-26T18:48:22.768Z,13.25
2023-03-26T18:50:59.917Z,13.31
2023-03-26T18:53:42.985Z,14.01
2023-03-26T18:56:31.577Z,14.34
2023-03-26T18:59:05.381Z,13.64
2023-03-26T19:01:42.182Z,14.09
2023-03-26T19:04:17.012Z,14.24
2023-03-26T19:06:53.941Z,12.16
2023-03-26T19:09:32.132Z,12.91
2023-03-26T19:12:11.218Z,14.26
2023-03-26T19:14:59.433Z,12.72
2023-03-26T19:17:39.048Z,14.14
2023-03-26T19:20:20.002Z,14.73
2023-03-26T19:22:54.071Z,13.50
2023-03-26T19:25:30.279Z,14.87
2023-03-26T19:28:02.681Z,13.75
2023-03-26T19:30:38.061Z,15.14
2023-03-26T19:33:19.286Z,14.77
2023-03-26T19:35:57.782Z,14.02
2023-03-26T19:38:33.202Z,14.79
2023-03-26T19:41:05.300Z,14.64
2023-03-26T19:43:37.396Z,13.84
2023-03-26T19:46:09.605Z,14.53
2023-03-26T19:48:45.629Z,14.76
2023-03-26T19:51:24.595Z,13.45
2023-03-26T19:54:03.249Z,14.22
2023-03-26T19:56:35.513Z,15.20
2023-03-26T19:59:08.012Z,15.43
2023-03-26T20:01:40.224Z,14.58
2023-03-26T20:04:16.755Z,15.66
2023-03-26T20:06:49.316Z,17.36
2023-03-26T20:09:21.549Z,15.90
2023-03-26T20:11:54.379Z,14.59
2023-03-26T20:14:27.229Z,15.54
2023-03-26T20:16:59.317Z,14.26
2023-03-26T20:19:37.014Z,13.71
2023-03-26T20:22:10.276Z,14.99
2023-03-26T20:24:42.570Z,13.80
2023-03-26T20:27:16.297Z,12.71
2023-03-26T20:29:48.501Z,12.74
2023-03-26T20:32:27.111Z,13.41
2023-03-26T20:35:02.337Z,13.01
2023-03-26T20:37:34.361Z,13.71
2023-03-26T20:40:07.253Z,13.24
2023-03-26T20:42:39.285Z,14.38
2023-03-26T20:45:20.436Z,15.23
2023-03-26T20:47:54.358Z,15.36
2023-03-26T20:50:30.040Z,13.96
2023-03-26T20:53:03.753Z,12.96
2023-03-26T20:55:35.903Z,13.66
2023-03-26T20:58:08.377Z,13.87
2023-03-26T21:00:41.616Z,14.32
2023-03-26T21:03:17.167Z,14.96
2023-03-26T21:05:52.734Z,14.84
2023-03-26T21:08:30.349Z,12.78
2023-03-26T21:11:03.516Z,13.58
2023-03-26T21:13:43.116Z,13.09
2023-03-26T21:16:17.353Z,13.52
2023-03-26T21:18:50.190Z,13.15
2023-03-26T21:21:42.688Z,13.42
2023-03-26T21:24:25.587Z,12.35
2023-03-26T21:27:09.814Z,13.26
2023-03-26T21:29:42.822Z,14.69
2023-03-26T21:32:16.339Z,13.39
2023-03-26T21:34:58.769Z,12.45
2023-03-26T21:37:34.809Z,12.72
2023-03-26T21:40:14.430Z,13.92
2023-03-26T21:42:47.408Z,13.42
2023-03-26T21:45:20.724Z,12.11
2023-03-26T21:47:54.441Z,13.79
2023-03-26T21:50:27.706Z,15.06
2023-03-26T21:53:02.914Z,13.39
2023-03-26T21:55:46.803Z,14.04
2023-03-26T21:58:42.953Z,13.88
2023-03-26T22:01:30.481Z,13.44
2023-03-26T22:04:13.463Z,14.35
2023-03-26T22:06:52.690Z,13.79
2023-03-26T22:12:08.424Z,13.89
2023-03-26T22:14:40.795Z,13.54
2023-03-26T22:17:13.188Z,14.48
2023-03-26T22:19:45.222Z,15.01
2023-03-26T22:22:19.860Z,14.97
2023-03-26T22:24:54.576Z,14.51
2023-03-26T22:27:26.624Z,13.13
2023-03-26T22:29:58.984Z,13.19
2023-03-26T22:32:32.781Z,13.20
2023-03-26T22:35:05.356Z,13.15
2023-03-26T22:37:37.933Z,12.89
2023-03-26T22:40:13.910Z,13.76
2023-03-26T22:42:46.278Z,13.09
2023-03-26T22:45:20.275Z,12.84
2023-03-26T22:47:52.794Z,14.24
2023-03-26T22:50:36.200Z,13.62
2023-03-26T22:53:08.649Z,13.54
2023-03-26T22:55:43.847Z,13.26
2023-03-26T22:58:17.028Z,12.41
2023-03-26T23:00:51.856Z,12.77
2023-03-26T23:03:35.040Z,12.66
2023-03-26T23:06:13.610Z,12.03
2023-03-26T23:08:46.458Z,13.49
2023-03-26T23:11:23.430Z,13.58
2023-03-26T23:13:55.693Z,14.84
2023-03-26T23:16:27.770Z,14.44
2023-03-26T23:18:59.902Z,13.53
2023-03-26T23:21:31.940Z,13.33
2023-03-26T23:24:04.722Z,13.33
2023-03-26T23:26:49.622Z,12.24
2023-03-26T23:29:25.653Z,11.94
2023-03-26T23:31:57.735Z,12.78
2023-03-26T23:34:32.171Z,12.24
2023-03-26T23:37:04.205Z,11.83
2023-03-26T23:39:36.311Z,12.29
2023-03-26T23:42:12.574Z,12.81
2023-03-26T23:44:46.531Z,12.36
2023-03-26T23:47:18.593Z,11.97
2023-03-26T23:49:50.689Z,12.54
2023-03-26T23:52:22.687Z,11.61
2023-03-26T23:54:54.876Z,13.06
2023-03-26T23:57:30.635Z,10.68
